createdAt,value
2019-01-23T00:01:00.364Z,-0.10
2019-01-23T00:03:27.096Z,-0.10
2019-01-23T00:05:53.639Z,0.00
2019-01-23T00:08:20.211Z,0.00
2019-01-23T00:10:46.847Z,0.00
2019-01-23T00:13:13.323Z,-0.30
2019-01-23T00:15:39.782Z,0.10
2019-01-23T00:18:06.461Z,-0.10
2019-01-23T00:20:32.991Z,-0.20
2019-01-23T00:22:59.372Z,0.20
2019-01-23T00:25:25.935Z,0.00
2019-01-23T00:27:52.582Z,-0.40
2019-01-23T00:30:19.344Z,0.10
2019-01-23T00:32:46.097Z,-0.10
2019-01-23T00:35:12.664Z,0.10
2019-01-23T00:37:39.308Z,0.10
2019-01-23T00:40:09.377Z,0.10
2019-01-23T00:42:36.114Z,0.20
2019-01-23T00:45:04.777Z,0.20
2019-01-23T00:47:31.223Z,0.10
2019-01-23T00:49:57.619Z,0.10
2019-01-23T00:52:24.092Z,0.10
2019-01-23T00:54:50.741Z,0.30
2019-01-23T00:57:17.201Z,0.10
2019-01-23T00:59:43.674Z,0.30
2019-01-23T01:02:10.135Z,0.00
2019-01-23T01:04:36.700Z,0.30
2019-01-23T01:07:03.452Z,0.10
2019-01-23T01:09:30.275Z,0.10
2019-01-23T01:11:56.826Z,0.10
2019-01-23T01:14:23.396Z,0.30
2019-01-23T01:16:49.841Z,0.10
2019-01-23T01:19:16.521Z,0.20
2019-01-23T01:21:43.067Z,0.30
2019-01-23T01:24:09.735Z,0.40
2019-01-23T01:26:36.283Z,0.30
2019-01-23T01:29:03.144Z,0.30
2019-01-23T01:31:29.508Z,0.10
2019-01-23T01:33:55.976Z,0.30
2019-01-23T01:36:22.796Z,0.20
2019-01-23T01:38:49.356Z,0.20
2019-01-23T01:41:16.014Z,0.30
2019-01-23T01:43:42.484Z,0.20
2019-01-23T01:46:08.945Z,0.50
2019-01-23T01:48:35.380Z,0.10
2019-01-23T01:51:02.056Z,0.30
2019-01-23T01:53:29.332Z,0.40
2019-01-23T01:55:55.786Z,0.30
2019-01-23T01:58:22.149Z,0.20
2019-01-23T02:00:48.731Z,0.20
2019-01-23T02:03:15.654Z,0.30
2019-01-23T02:05:42.224Z,0.10
2019-01-23T02:08:08.992Z,0.30
2019-01-23T02:10:36.301Z,0.20
2019-01-23T02:13:03.071Z,0.20
2019-01-23T02:15:29.631Z,0.40
2019-01-23T02:17:56.104Z,0.30
2019-01-23T02:20:23.118Z,0.20
2019-01-23T02:22:49.595Z,0.30
2019-01-23T02:25:16.165Z,0.10
2019-01-23T02:27:43.654Z,0.20
2019-01-23T02:30:13.600Z,0.30
2019-01-23T02:32:40.343Z,0.10
2019-01-23T02:35:07.696Z,0.20
2019-01-23T02:37:34.263Z,0.40
2019-01-23T02:40:00.821Z,0.20
2019-01-23T02:42:27.285Z,0.00
2019-01-23T02:44:53.731Z,0.10
2019-01-23T02:47:20.110Z,0.20
2019-01-23T02:49:46.608Z,-0.10
2019-01-23T02:52:13.067Z,0.30
2019-01-23T02:54:39.519Z,0.10
2019-01-23T02:57:05.947Z,0.20
2019-01-23T02:59:32.329Z,0.20
2019-01-23T03:01:58.967Z,0.20
2019-01-23T03:04:25.432Z,0.10
2019-01-23T03:06:51.975Z,0.30
2019-01-23T03:09:18.345Z,0.30
2019-01-23T03:11:44.897Z,0.30
2019-01-23T03:14:11.373Z,0.10
2019-01-23T03:16:37.810Z,0.10
2019-01-23T03:19:04.996Z,0.30
2019-01-23T03:21:31.535Z,0.30
2019-01-23T03:23:58.204Z,0.20
2019-01-23T03:26:24.569Z,0.20
2019-01-23T03:28:51.112Z,0.30
2019-01-23T03:31:17.490Z,0.50
2019-01-23T03:33:43.974Z,0.50
2019-01-23T03:36:10.609Z,0.10
2019-01-23T03:38:37.060Z,0.40
2019-01-23T03:41:03.999Z,0.30
2019-01-23T03:43:30.803Z,0.20
2019-01-23T03:45:57.296Z,0.30
2019-01-23T03:48:23.941Z,0.20
2019-01-23T03:50:50.408Z,0.30
2019-01-23T03:53:16.776Z,0.20
2019-01-23T03:55:43.541Z,0.50
2019-01-23T03:58:10.282Z,0.50
2019-01-23T04:00:36.927Z,0.40
2019-01-23T04:03:03.696Z,0.30
2019-01-23T04:05:31.201Z,0.20
2019-01-23T04:07:57.717Z,0.40
2019-01-23T04:10:24.256Z,0.20
2019-01-23T04:12:50.632Z,0.30
2019-01-23T04:15:17.388Z,0.20
2019-01-23T04:17:44.076Z,0.40
2019-01-23T04:20:12.939Z,0.60
2019-01-23T04:22:39.610Z,0.40
2019-01-23T04:25:07.751Z,0.30
2019-01-23T04:27:34.323Z,0.40
2019-01-23T04:30:00.941Z,0.30
2019-01-23T04:32:27.405Z,0.40
2019-01-23T04:34:53.859Z,0.30
2019-01-23T04:37:20.222Z,0.30
2019-01-23T04:39:46.709Z,0.40
2019-01-23T04:42:13.336Z,0.40
2019-01-23T04:44:39.941Z,0.70
2019-01-23T04:47:06.389Z,0.70
2019-01-23T04:49:32.966Z,0.50
2019-01-23T04:52:01.404Z,0.40
2019-01-23T04:54:27.780Z,0.30
2019-01-23T04:56:54.224Z,0.20
2019-01-23T04:59:20.861Z,0.50
2019-01-23T05:01:47.772Z,0.40
2019-01-23T05:04:14.549Z,0.20
2019-01-23T05:06:41.108Z,0.10
2019-01-23T05:09:07.887Z,0.30
2019-01-23T05:11:34.437Z,0.20
2019-01-23T05:14:00.995Z,0.20
2019-01-23T05:16:27.459Z,0.30
2019-01-23T05:18:54.032Z,0.20
2019-01-23T05:21:20.840Z,0.10
2019-01-23T05:23:47.316Z,0.10
2019-01-23T05:26:13.871Z,0.20
2019-01-23T05:28:40.455Z,0.10
2019-01-23T05:31:06.995Z,0.10
2019-01-23T05:33:33.700Z,-0.10
2019-01-23T05:36:00.176Z,0.30
2019-01-23T05:38:26.614Z,0.30
2019-01-23T05:40:53.087Z,0.20
2019-01-23T05:43:19.529Z,-0.10
2019-01-23T05:45:46.122Z,0.10
2019-01-23T05:48:12.676Z,0.10
2019-01-23T05:50:39.267Z,0.10
2019-01-23T05:53:06.074Z,0.00
2019-01-23T05:55:32.643Z,0.10
2019-01-23T05:57:59.090Z,0.00
2019-01-23T06:00:25.652Z,0.30
2019-01-23T06:02:52.982Z,0.20
2019-01-23T06:05:19.824Z,0.30
2019-01-23T06:07:46.497Z,0.10
2019-01-23T06:10:13.405Z,0.30
2019-01-23T06:12:40.093Z,0.20
2019-01-23T06:15:12.127Z,0.30
2019-01-23T06:17:38.704Z,0.20
2019-01-23T06:20:11.732Z,0.50
2019-01-23T06:22:38.404Z,0.30
2019-01-23T06:25:05.744Z,0.30
2019-01-23T06:27:32.325Z,0.40
2019-01-23T06:29:58.777Z,0.30
2019-01-23T06:32:25.349Z,0.10
2019-01-23T06:34:51.801Z,0.40
2019-01-23T06:37:18.283Z,0.30
2019-01-23T06:39:44.941Z,0.10
2019-01-23T06:42:11.676Z,0.10
2019-01-23T06:44:38.211Z,0.30
2019-01-23T06:47:04.641Z,0.10
2019-01-23T06:49:31.101Z,0.30
2019-01-23T06:51:57.639Z,0.30
2019-01-23T06:54:24.044Z,0.40
2019-01-23T06:56:51.089Z,0.30
2019-01-23T06:59:17.652Z,0.30
2019-01-23T07:01:44.117Z,0.00
2019-01-23T07:04:10.704Z,0.40
2019-01-23T07:06:37.252Z,0.40
2019-01-23T07:09:06.046Z,0.40
2019-01-23T07:11:32.682Z,0.40
2019-01-23T07:13:59.152Z,0.20
2019-01-23T07:16:25.597Z,0.20
2019-01-23T07:18:52.339Z,0.40
2019-01-23T07:21:18.779Z,0.20
2019-01-23T07:23:45.371Z,0.30
2019-01-23T07:26:12.035Z,0.20
2019-01-23T07:28:38.493Z,0.30
2019-01-23T07:31:05.071Z,0.30
2019-01-23T07:33:31.833Z,0.40
2019-01-23T07:35:58.594Z,0.60
2019-01-23T07:38:25.148Z,0.50
2019-01-23T07:40:51.625Z,0.10
2019-01-23T07:43:18.180Z,0.30
2019-01-23T07:45:44.941Z,0.20
2019-01-23T07:48:11.609Z,0.30
2019-01-23T07:50:38.176Z,0.30
2019-01-23T07:53:04.912Z,0.30
2019-01-23T07:55:31.391Z,0.20
2019-01-23T07:57:58.060Z,0.40
2019-01-23T08:00:31.258Z,0.50
2019-01-23T08:02:54.557Z,0.50
2019-01-23T08:05:23.220Z,0.50
2019-01-23T08:07:49.865Z,0.80
2019-01-23T08:10:18.051Z,0.80
2019-01-23T08:12:44.808Z,0.50
2019-01-23T08:15:23.787Z,0.30
2019-01-23T08:17:50.241Z,0.30
2019-01-23T08:20:18.914Z,0.40
2019-01-23T08:22:45.704Z,0.30
2019-01-23T08:25:12.380Z,0.10
2019-01-23T08:27:39.244Z,0.40
2019-01-23T08:30:09.152Z,0.30
2019-01-23T08:32:35.737Z,0.20
2019-01-23T08:35:04.188Z,0.40
2019-01-23T08:37:30.672Z,0.30
2019-01-23T08:39:57.256Z,0.50
2019-01-23T08:42:23.747Z,0.70
2019-01-23T08:44:50.299Z,0.60
2019-01-23T08:47:16.878Z,0.70
2019-01-23T08:49:43.419Z,0.50
2019-01-23T08:52:10.025Z,0.70
2019-01-23T08:54:36.459Z,0.80
2019-01-23T08:57:03.036Z,0.60
2019-01-23T08:59:29.408Z,0.50
2019-01-23T09:01:55.997Z,0.70
2019-01-23T09:04:22.676Z,1.00
2019-01-23T09:06:49.613Z,1.00
2019-01-23T09:09:16.166Z,1.20
2019-01-23T09:11:42.839Z,1.70
2019-01-23T09:14:09.397Z,1.90
2019-01-23T09:16:36.341Z,1.70
2019-01-23T09:19:03.080Z,2.00
2019-01-23T09:21:29.460Z,2.50
2019-01-23T09:23:56.019Z,2.50
2019-01-23T09:26:22.589Z,2.10
2019-01-23T09:28:49.117Z,2.20
2019-01-23T09:31:22.183Z,2.20
2019-01-23T09:33:52.448Z,3.30
2019-01-23T09:36:22.828Z,3.00
2019-01-23T09:39:12.853Z,3.00
2019-01-23T09:42:10.046Z,2.50
2019-01-23T09:45:15.387Z,2.20
2019-01-23T09:47:51.712Z,1.70
2019-01-23T09:50:36.849Z,2.00
2019-01-23T09:53:21.986Z,1.90
2019-01-23T09:55:48.782Z,1.90
2019-01-23T09:58:15.240Z,2.30
2019-01-23T10:00:41.924Z,3.20
2019-01-23T10:03:08.576Z,3.50
2019-01-23T10:05:35.253Z,3.30
2019-01-23T10:08:01.901Z,3.30
2019-01-23T10:10:28.380Z,3.40
2019-01-23T10:12:54.942Z,3.80
2019-01-23T10:15:27.932Z,3.60
2019-01-23T10:17:54.532Z,3.40
2019-01-23T10:20:21.377Z,3.50
2019-01-23T10:22:48.240Z,2.50
2019-01-23T10:25:14.808Z,2.60
2019-01-23T10:27:41.597Z,3.00
2019-01-23T10:30:13.268Z,2.60
2019-01-23T10:32:40.049Z,2.90
2019-01-23T10:35:10.196Z,2.90
2019-01-23T10:37:36.798Z,2.80
2019-01-23T10:40:13.121Z,2.90
2019-01-23T10:42:40.071Z,3.20
2019-01-23T10:45:09.017Z,3.00
2019-01-23T10:47:35.608Z,3.60
2019-01-23T10:50:05.433Z,3.30
2019-01-23T10:52:32.008Z,3.50
2019-01-23T10:54:58.532Z,3.70
2019-01-23T10:57:25.216Z,3.50
2019-01-23T10:59:52.173Z,3.20
2019-01-23T11:02:18.820Z,3.70
2019-01-23T11:04:45.766Z,3.90
2019-01-23T11:07:12.521Z,4.50
2019-01-23T11:09:39.848Z,4.90
2019-01-23T11:12:06.688Z,4.30
2019-01-23T11:14:33.269Z,4.00
2019-01-23T11:16:59.958Z,3.80
2019-01-23T11:19:26.541Z,3.90
2019-01-23T11:21:53.461Z,4.10
2019-01-23T11:24:19.944Z,4.10
2019-01-23T11:26:46.602Z,3.80
2019-01-23T11:29:13.068Z,3.50
2019-01-23T11:31:39.553Z,3.10
2019-01-23T11:34:06.501Z,3.30
2019-01-23T11:36:33.165Z,2.60
2019-01-23T11:38:59.737Z,2.50
2019-01-23T11:41:26.225Z,2.80
2019-01-23T11:43:52.802Z,3.10
2019-01-23T11:46:19.438Z,3.80
2019-01-23T11:48:46.006Z,4.10
2019-01-23T11:51:12.656Z,4.20
2019-01-23T11:53:39.219Z,3.80
2019-01-23T11:56:05.833Z,3.40
2019-01-23T11:58:32.396Z,3.00
2019-01-23T12:00:59.240Z,3.20
2019-01-23T12:03:25.637Z,3.00
2019-01-23T12:05:52.489Z,3.30
2019-01-23T12:08:19.162Z,3.20
2019-01-23T12:10:45.816Z,2.70
2019-01-23T12:13:12.392Z,2.70
2019-01-23T12:15:40.903Z,2.90
2019-01-23T12:18:07.419Z,3.80
2019-01-23T12:20:34.060Z,3.80
2019-01-23T12:23:00.833Z,3.50
2019-01-23T12:25:27.506Z,3.70
2019-01-23T12:27:54.096Z,3.80
2019-01-23T12:30:26.941Z,3.40
2019-01-23T12:32:53.612Z,3.60
2019-01-23T12:35:20.265Z,4.10
2019-01-23T12:37:46.971Z,4.70
2019-01-23T12:40:14.802Z,4.70
2019-01-23T12:42:41.397Z,4.70
2019-01-23T12:45:14.195Z,4.70
2019-01-23T12:47:41.058Z,4.80
2019-01-23T12:50:10.309Z,5.00
2019-01-23T12:52:36.868Z,5.10
2019-01-23T12:55:05.915Z,4.70
2019-01-23T12:57:32.779Z,4.60
2019-01-23T13:00:05.124Z,4.10
2019-01-23T13:02:27.608Z,4.40
2019-01-23T13:04:54.065Z,4.30
2019-01-23T13:07:20.924Z,4.60
2019-01-23T13:09:47.582Z,4.50
2019-01-23T13:12:14.264Z,4.00
2019-01-23T13:14:40.809Z,4.00
2019-01-23T13:17:07.713Z,3.60
2019-01-23T13:19:34.672Z,4.00
2019-01-23T13:22:01.413Z,4.20
2019-01-23T13:24:28.013Z,4.50
2019-01-23T13:26:54.671Z,4.40
2019-01-23T13:29:21.250Z,4.80
2019-01-23T13:31:49.177Z,4.70
2019-01-23T13:34:16.019Z,4.80
2019-01-23T13:36:42.601Z,4.80
2019-01-23T13:39:09.630Z,4.90
2019-01-23T13:41:36.180Z,4.50
2019-01-23T13:44:02.952Z,4.30
2019-01-23T13:46:29.339Z,4.30
2019-01-23T13:48:56.024Z,4.10
2019-01-23T13:51:22.564Z,3.10
2019-01-23T13:53:49.135Z,3.30
2019-01-23T13:56:15.596Z,3.10
2019-01-23T13:58:42.166Z,3.20
2019-01-23T14:01:08.992Z,3.20
2019-01-23T14:03:35.457Z,3.30
2019-01-23T14:06:02.124Z,3.40
2019-01-23T14:08:28.586Z,2.90
2019-01-23T14:10:55.376Z,3.20
2019-01-23T14:13:21.837Z,3.00
2019-01-23T14:15:48.422Z,2.50
2019-01-23T14:18:15.149Z,2.70
2019-01-23T14:20:42.029Z,2.40
2019-01-23T14:23:08.697Z,2.50
2019-01-23T14:25:35.372Z,2.20
2019-01-23T14:28:01.969Z,2.50
2019-01-23T14:30:39.931Z,2.30
2019-01-23T14:33:06.871Z,2.20
2019-01-23T14:35:34.548Z,2.40
2019-01-23T14:38:01.267Z,2.30
2019-01-23T14:40:27.946Z,2.10
2019-01-23T14:42:54.629Z,2.10
2019-01-23T14:45:21.291Z,2.10
2019-01-23T14:47:47.890Z,2.40
2019-01-23T14:50:16.845Z,2.30
2019-01-23T14:52:44.335Z,2.10
2019-01-23T14:55:11.196Z,2.20
2019-01-23T14:57:38.209Z,1.70
2019-01-23T15:00:25.357Z,1.60
2019-01-23T15:02:52.336Z,1.70
2019-01-23T15:05:19.348Z,1.70
2019-01-23T15:07:46.030Z,1.80
2019-01-23T15:10:20.587Z,2.00
2019-01-23T15:12:47.487Z,2.10
2019-01-23T15:15:15.065Z,2.10
2019-01-23T15:17:41.626Z,2.10
2019-01-23T15:20:20.094Z,1.90
2019-01-23T15:22:46.773Z,2.20
2019-01-23T15:25:13.655Z,1.70
2019-01-23T15:27:40.236Z,1.60
2019-01-23T15:30:16.322Z,1.60
2019-01-23T15:32:42.876Z,1.60
2019-01-23T15:35:10.429Z,1.30
2019-01-23T15:37:37.302Z,1.20
2019-01-23T15:40:13.627Z,1.40
2019-01-23T15:42:40.185Z,1.60
2019-01-23T15:45:08.861Z,1.40
2019-01-23T15:47:35.321Z,1.30
2019-01-23T15:50:03.798Z,1.60
2019-01-23T15:52:30.276Z,1.20
2019-01-23T15:54:56.882Z,1.50
2019-01-23T15:57:23.692Z,1.40
2019-01-23T15:59:50.053Z,1.30
2019-01-23T16:02:16.629Z,1.20
2019-01-23T16:04:43.077Z,1.30
2019-01-23T16:07:09.668Z,1.20
2019-01-23T16:09:36.218Z,1.20
2019-01-23T16:12:03.288Z,1.10
2019-01-23T16:14:29.771Z,1.20
2019-01-23T16:16:56.353Z,1.00
2019-01-23T16:19:23.083Z,1.00
2019-01-23T16:21:49.593Z,0.90
2019-01-23T16:24:16.140Z,1.10
2019-01-23T16:26:42.717Z,0.70
2019-01-23T16:29:09.159Z,0.60
2019-01-23T16:31:35.569Z,1.00
2019-01-23T16:34:02.014Z,1.10
2019-01-23T16:36:28.488Z,1.00
2019-01-23T16:38:55.072Z,0.90
2019-01-23T16:41:21.561Z,1.10
2019-01-23T16:43:48.217Z,0.90
2019-01-23T16:46:14.890Z,0.80
2019-01-23T16:48:41.348Z,0.60
2019-01-23T16:51:07.822Z,0.90
2019-01-23T16:53:34.289Z,0.90
2019-01-23T16:56:00.867Z,1.00
2019-01-23T16:58:27.230Z,0.90
2019-01-23T17:00:53.889Z,1.10
2019-01-23T17:03:20.569Z,1.00
2019-01-23T17:05:47.129Z,1.10
2019-01-23T17:08:13.606Z,1.00
2019-01-23T17:10:40.360Z,0.70
2019-01-23T17:13:06.919Z,1.00
2019-01-23T17:15:33.436Z,1.00
2019-01-23T17:18:00.105Z,1.00
2019-01-23T17:20:38.377Z,1.00
2019-01-23T17:23:05.827Z,0.90
2019-01-23T17:25:32.905Z,0.80
2019-01-23T17:27:59.341Z,0.90
2019-01-23T17:30:26.312Z,1.00
2019-01-23T17:32:53.064Z,1.00
2019-01-23T17:35:20.241Z,0.90
2019-01-23T17:37:47.107Z,0.90
2019-01-23T17:40:16.263Z,0.90
2019-01-23T17:42:43.617Z,0.70
2019-01-23T17:45:16.730Z,0.50
2019-01-23T17:47:43.385Z,0.90
2019-01-23T17:50:15.695Z,0.80
2019-01-23T17:52:42.368Z,0.70
2019-01-23T17:55:12.645Z,0.90
2019-01-23T17:57:39.284Z,0.90
2019-01-23T18:00:16.163Z,0.70
2019-01-23T18:02:42.939Z,1.20
2019-01-23T18:05:09.628Z,0.90
2019-01-23T18:07:36.453Z,0.60
2019-01-23T18:10:05.701Z,0.60
2019-01-23T18:12:32.385Z,0.90
2019-01-23T18:14:58.984Z,0.70
2019-01-23T18:17:25.550Z,0.80
2019-01-23T18:19:51.995Z,1.00
2019-01-23T18:22:18.841Z,0.80
2019-01-23T18:24:45.414Z,0.70
2019-01-23T18:27:12.091Z,0.40
2019-01-23T18:29:38.653Z,0.60
2019-01-23T18:32:05.316Z,0.60
2019-01-23T18:34:41.438Z,0.70
2019-01-23T18:37:20.521Z,0.70
2019-01-23T18:39:50.676Z,0.70
2019-01-23T18:42:21.073Z,0.90
2019-01-23T18:44:51.341Z,1.00
2019-01-23T18:47:36.626Z,0.70
2019-01-23T18:50:29.275Z,0.70
2019-01-23T18:52:55.774Z,0.80
2019-01-23T18:55:23.701Z,0.70
2019-01-23T18:57:50.372Z,0.70
2019-01-23T19:00:19.956Z,0.80
2019-01-23T19:02:46.696Z,0.90
2019-01-23T19:05:16.289Z,0.60
2019-01-23T19:07:42.928Z,0.80
2019-01-23T19:10:12.309Z,0.60
2019-01-23T19:12:38.880Z,0.80
2019-01-23T19:15:09.048Z,0.90
2019-01-23T19:17:35.508Z,0.60
2019-01-23T19:20:06.095Z,0.90
2019-01-23T19:22:32.645Z,0.80
2019-01-23T19:24:59.377Z,1.10
2019-01-23T19:27:25.869Z,0.70
2019-01-23T19:29:52.370Z,0.60
2019-01-23T19:32:18.945Z,0.60
2019-01-23T19:34:45.393Z,0.70
2019-01-23T19:37:12.022Z,0.70
2019-01-23T19:39:38.565Z,0.70
2019-01-23T19:42:05.132Z,0.70
2019-01-23T19:44:31.688Z,1.00
2019-01-23T19:46:58.165Z,1.00
2019-01-23T19:49:24.784Z,1.00
2019-01-23T19:51:51.296Z,1.20
2019-01-23T19:54:17.872Z,0.70
2019-01-23T19:56:44.553Z,0.90
2019-01-23T19:59:11.370Z,0.80
2019-01-23T20:01:37.747Z,1.10
2019-01-23T20:04:04.395Z,0.90
2019-01-23T20:06:30.935Z,1.10
2019-01-23T20:08:57.421Z,1.10
2019-01-23T20:11:23.968Z,1.00
2019-01-23T20:13:50.444Z,0.80
2019-01-23T20:16:16.900Z,0.70
2019-01-23T20:18:43.401Z,0.90
2019-01-23T20:21:09.957Z,1.00
2019-01-23T20:23:36.817Z,1.00
2019-01-23T20:26:03.488Z,1.10
2019-01-23T20:28:30.260Z,0.90
2019-01-23T20:30:56.740Z,0.80
2019-01-23T20:33:27.893Z,1.00
2019-01-23T20:35:51.708Z,1.10
2019-01-23T20:38:18.191Z,1.10
2019-01-23T20:40:44.778Z,0.70
2019-01-23T20:43:11.216Z,1.10
2019-01-23T20:45:37.940Z,1.10
2019-01-23T20:48:04.944Z,1.10
2019-01-23T20:50:31.403Z,0.80
2019-01-23T20:52:58.248Z,0.90
2019-01-23T20:55:24.924Z,1.00
2019-01-23T20:57:51.859Z,0.90
2019-01-23T21:00:21.201Z,0.80
2019-01-23T21:02:47.849Z,0.80
2019-01-23T21:05:14.888Z,0.80
2019-01-23T21:07:41.569Z,0.70
2019-01-23T21:10:10.820Z,0.60
2019-01-23T21:12:37.196Z,0.70
2019-01-23T21:15:05.325Z,0.70
2019-01-23T21:17:32.112Z,0.70
2019-01-23T21:19:58.580Z,0.80
2019-01-23T21:22:25.169Z,0.90
2019-01-23T21:24:51.614Z,1.10
2019-01-23T21:27:18.079Z,1.00
2019-01-23T21:29:44.648Z,0.80
2019-01-23T21:32:11.120Z,1.00
2019-01-23T21:34:37.593Z,1.00
2019-01-23T21:37:04.415Z,1.00
2019-01-23T21:39:30.855Z,1.00
2019-01-23T21:41:57.691Z,1.20
2019-01-23T21:44:24.049Z,1.00
2019-01-23T21:46:50.428Z,0.90
2019-01-23T21:49:17.103Z,0.90
2019-01-23T21:51:43.561Z,1.10
2019-01-23T21:54:10.028Z,0.70
2019-01-23T21:56:36.485Z,1.10
2019-01-23T21:59:03.258Z,0.90
2019-01-23T22:01:29.724Z,1.40
2019-01-23T22:03:56.185Z,1.00
2019-01-23T22:06:22.700Z,1.20
2019-01-23T22:08:49.178Z,1.20
2019-01-23T22:11:15.716Z,1.20
2019-01-23T22:13:42.305Z,1.00
2019-01-23T22:16:08.756Z,1.20
2019-01-23T22:18:35.245Z,1.00
2019-01-23T22:21:02.091Z,1.30
2019-01-23T22:23:28.579Z,1.20
2019-01-23T22:25:55.138Z,1.20
2019-01-23T22:28:21.883Z,1.50
2019-01-23T22:30:48.405Z,1.70
2019-01-23T22:33:15.235Z,1.50
2019-01-23T22:35:41.620Z,1.40
2019-01-23T22:38:08.204Z,1.40
2019-01-23T22:40:35.059Z,1.40
2019-01-23T22:43:01.815Z,1.50
2019-01-23T22:45:28.397Z,1.40
2019-01-23T22:47:54.857Z,1.60
2019-01-23T22:50:24.424Z,1.40
2019-01-23T22:52:51.307Z,1.50
2019-01-23T22:55:18.073Z,1.20
2019-01-23T22:57:44.548Z,1.40
2019-01-23T23:00:26.859Z,1.20
2019-01-23T23:02:53.404Z,1.40
2019-01-23T23:05:19.892Z,1.30
2019-01-23T23:07:46.497Z,1.50
2019-01-23T23:10:14.054Z,1.50
2019-01-23T23:12:41.097Z,1.50
2019-01-23T23:15:09.845Z,1.30
2019-01-23T23:17:36.585Z,1.40
2019-01-23T23:20:06.553Z,1.40
2019-01-23T23:22:33.033Z,1.30
2019-01-23T23:24:59.964Z,1.20
2019-01-23T23:27:26.443Z,1.40
2019-01-23T23:29:52.809Z,1.40
2019-01-23T23:32:19.411Z,1.40
2019-01-23T23:34:46.164Z,1.50
2019-01-23T23:37:12.851Z,1.40
2019-01-23T23:39:39.297Z,1.40
2019-01-23T23:42:05.984Z,1.40
2019-01-23T23:44:32.457Z,1.40
2019-01-23T23:46:58.924Z,1.20
2019-01-23T23:49:25.631Z,1.20
2019-01-23T23:51:52.313Z,1.20
2019-01-23T23:54:18.964Z,1.20
2019-01-23T23:56:45.574Z,1.30
2019-01-23T23:59:12.362Z,1.40
